Ryan Park, Wyoming
Current Conditions -  °F | °C
As of 9:35 PM on Saturday 20 Dec 2014 (Local Time) from KSAA Reporting Station
Broken Clouds Broken Clouds  
Wind Chill: 17°   Ceiling: 6000
Heat Index: 27°   Visibility: 10mi
Dew Point: 23°   Wind: 9mph
Humidity: 86%   Direction: 230°SW
Pressure: 29.97"   Gusts: NA
Location:  41.4496°N, 106.623°W
Report Text: KSAA 210435Z AUTO 23008KT 10SM SCT028 BKN060 M03/M05 A2997 RMK AO2
Loading
Personal Weather Stations






























Interactive Weather Map New forecast layout! Learn more

10-Day Weather Forecast

Advertisements
Track Severe Weather on mobile